Time;durP1;ratioP1;P1;durP2;ratioP2;P2;SDS_P1;SDS_P2;PMS_P1;PMS_P2;Temp;Humidity;BMP_temperature;BMP_pressure;BME280_temperature;BME280_humidity;BME280_pressure;Samples;Min_cycle;Max_cycle;Signal;HPM_P1;HPM_P2
2021/07/29 00:01:43;;;;;;;9.90;3.40;;;16.60;99.90;;;;;;5091867;28;20224;-83
2021/07/29 00:04:09;;;;;;;10.27;3.08;;;16.60;99.90;;;;;;5092764;28;20549;-83
2021/07/29 00:06:34;;;;;;;7.30;3.78;;;16.50;99.90;;;;;;5091797;28;20036;-82
2021/07/29 00:09:02;;;;;;;7.85;3.42;;;16.50;99.90;;;;;;5092993;28;20040;-83
2021/07/29 00:11:28;;;;;;;7.53;3.40;;;16.50;99.90;;;;;;5093089;28;20036;-83
2021/07/29 00:13:57;;;;;;;7.57;3.55;;;16.50;99.90;;;;;;5092991;28;20036;-84
2021/07/29 00:16:26;;;;;;;7.30;3.05;;;16.50;99.90;;;;;;5090495;28;20071;-83
2021/07/29 00:21:49;;;;;;;8.88;3.50;;;16.50;99.90;;;;;;5063744;28;20051;-83
2021/07/29 00:24:15;;;;;;;6.35;3.58;;;16.50;99.90;;;;;;5091791;28;20036;-82
2021/07/29 00:26:42;;;;;;;10.82;3.30;;;16.50;99.90;;;;;;5077730;28;20044;-83
2021/07/29 00:29:08;;;;;;;12.43;4.55;;;16.60;99.90;;;;;;5091555;28;20043;-83
2021/07/29 00:31:37;;;;;;;8.85;3.45;;;16.40;99.90;;;;;;5064238;28;20119;-82
2021/07/29 00:34:05;;;;;;;8.15;3.75;;;16.30;99.90;;;;;;5083379;28;20037;-82
2021/07/29 00:36:36;;;;;;;8.80;3.30;;;16.30;99.90;;;;;;5074288;28;20048;-83
2021/07/29 00:39:06;;;;;;;10.77;3.75;;;16.30;99.90;;;;;;5092678;28;20036;-83
2021/07/29 00:41:38;;;;;;;10.13;3.70;;;16.30;99.90;;;;;;5091790;28;20055;-83
2021/07/29 00:44:04;;;;;;;8.40;3.70;;;16.20;99.90;;;;;;5091386;28;20389;-83
2021/07/29 00:46:37;;;;;;;8.40;3.72;;;16.30;99.90;;;;;;5071263;28;20109;-83
2021/07/29 00:49:04;;;;;;;8.57;4.03;;;16.20;99.90;;;;;;5060163;28;20070;-83
2021/07/29 00:51:36;;;;;;;9.38;4.30;;;16.20;99.90;;;;;;5091997;28;20028;-81
2021/07/29 00:54:04;;;;;;;11.68;4.30;;;16.30;99.90;;;;;;5091550;28;20373;-82
2021/07/29 00:56:31;;;;;;;12.27;4.10;;;16.20;99.90;;;;;;5092536;28;20126;-81
2021/07/29 00:59:00;;;;;;;9.95;4.22;;;16.20;99.90;;;;;;5074579;28;20044;-82
2021/07/29 01:01:50;;;;;;;11.65;3.90;;;16.10;99.90;;;;;;5076255;28;20044;-82
2021/07/29 01:04:19;;;;;;;9.13;4.20;;;16.20;99.90;;;;;;5091275;28;20089;-82
2021/07/29 01:06:48;;;;;;;13.88;4.40;;;16.20;99.90;;;;;;5076286;28;20043;-80
2021/07/29 01:09:14;;;;;;;11.52;4.30;;;16.20;99.90;;;;;;5074513;28;20093;-81
2021/07/29 01:11:45;;;;;;;10.32;4.57;;;16.20;99.90;;;;;;5057289;28;20438;-81
2021/07/29 01:14:11;;;;;;;8.60;4.18;;;16.00;99.90;;;;;;5072597;28;20041;-80
2021/07/29 01:16:38;;;;;;;8.93;4.28;;;16.00;99.90;;;;;;5090296;28;20404;-81
2021/07/29 01:19:08;;;;;;;13.02;4.78;;;15.90;99.90;;;;;;5094779;28;20111;-81
2021/07/29 01:21:34;;;;;;;7.93;4.70;;;15.90;99.90;;;;;;5091018;28;20052;-81
2021/07/29 01:24:01;;;;;;;12.82;4.88;;;15.80;99.90;;;;;;5094825;28;20451;-81
2021/07/29 01:26:27;;;;;;;8.00;4.40;;;15.80;99.90;;;;;;5095999;28;20032;-80
2021/07/29 01:28:57;;;;;;;14.57;5.13;;;15.70;99.90;;;;;;5095893;28;20460;-81
2021/07/29 01:31:23;;;;;;;12.00;4.82;;;15.70;99.90;;;;;;5094856;28;20036;-81
2021/07/29 01:33:50;;;;;;;11.30;4.07;;;15.50;99.90;;;;;;5095712;28;20032;-80
2021/07/29 01:36:16;;;;;;;17.90;3.45;;;15.50;99.90;;;;;;5078001;28;20484;-80
2021/07/29 01:38:41;;;;;;;11.30;3.67;;;15.40;99.90;;;;;;5092603;28;20059;-80
2021/07/29 01:41:07;;;;;;;7.70;2.83;;;15.20;99.90;;;;;;5095707;28;20097;-79
2021/07/29 01:43:36;;;;;;;12.90;3.00;;;15.10;99.90;;;;;;5095574;28;20068;-79
2021/07/29 01:46:04;;;;;;;7.30;2.95;;;14.90;99.90;;;;;;5077692;28;20043;-79
2021/07/29 01:48:31;;;;;;;6.45;2.60;;;14.90;99.90;;;;;;5095624;28;20032;-80
2021/07/29 01:50:57;;;;;;;10.55;2.65;;;14.90;99.90;;;;;;5077069;28;20056;-79
2021/07/29 01:53:23;;;;;;;7.35;2.50;;;14.80;99.90;;;;;;5077617;28;20044;-80
2021/07/29 01:55:50;;;;;;;6.70;2.47;;;14.70;99.90;;;;;;5094267;28;20046;-80
2021/07/29 01:59:16;;;;;;;5.13;2.17;;;14.70;99.90;;;;;;5074138;28;20044;-80
2021/07/29 02:02:13;;;;;;;7.47;2.42;;;15.00;99.90;;;;;;5012710;28;20046;-79
2021/07/29 02:05:32;;;;;;;5.55;2.42;;;14.50;99.90;;;;;;5012554;28;20053;-79
2021/07/29 02:09:52;;;;;;;5.63;2.10;;;14.90;99.90;;;;;;5011800;28;20449;-80
2021/07/29 02:12:46;;;;;;;;;;;;;;;;;;;;;
2021/07/29 02:16:16;;;;;;;;;;;;;;;;;;;;;
2021/07/29 02:19:19;;;;;;;5.45;2.80;;;14.50;99.90;;;;;;4935140;29;20059;-80
2021/07/29 02:23:09;;;;;;;7.22;3.10;;;14.60;99.90;;;;;;4978817;28;20050;-80
2021/07/29 02:25:35;;;;;;;11.13;3.53;;;14.40;99.90;;;;;;4958268;28;20488;-80
2021/07/29 02:28:01;;;;;;;11.85;4.53;;;14.60;99.90;;;;;;5091600;28;20032;-81
2021/07/29 02:30:27;;;;;;;13.93;4.07;;;14.60;99.90;;;;;;5077031;28;20031;-80
2021/07/29 02:32:53;;;;;;;11.27;4.60;;;14.60;99.90;;;;;;5076816;28;20082;-80
2021/07/29 02:35:19;;;;;;;14.05;4.35;;;14.60;99.90;;;;;;5094700;28;20058;-81
2021/07/29 02:37:44;;;;;;;17.70;4.80;;;14.70;99.90;;;;;;5094782;28;20028;-80
2021/07/29 02:40:11;;;;;;;10.32;3.70;;;14.70;99.90;;;;;;5094496;28;20032;-80
2021/07/29 02:42:37;;;;;;;11.80;3.58;;;14.70;99.90;;;;;;5058825;28;20391;-80
2021/07/29 02:45:03;;;;;;;10.73;2.78;;;14.70;99.90;;;;;;5076423;28;20599;-80
2021/07/29 02:47:28;;;;;;;7.32;2.72;;;14.70;99.90;;;;;;5076287;28;20044;-80
2021/07/29 02:49:54;;;;;;;5.47;1.90;;;14.60;99.90;;;;;;5094306;28;20578;-80
2021/07/29 02:52:23;;;;;;;5.35;1.58;;;14.50;99.90;;;;;;5076078;28;20036;-79
2021/07/29 02:54:50;;;;;;;4.32;1.65;;;14.50;99.90;;;;;;5056699;28;20063;-80
2021/07/29 02:57:17;;;;;;;4.05;1.20;;;14.30;99.90;;;;;;5087580;28;20040;-79
2021/07/29 02:59:43;;;;;;;2.58;1.20;;;14.30;99.90;;;;;;5058593;28;20040;-79
2021/07/29 03:02:11;;;;;;;3.15;1.20;;;14.10;99.90;;;;;;5076555;28;20109;-80
2021/07/29 03:04:40;;;;;;;3.15;1.25;;;14.00;99.90;;;;;;5076104;28;20032;-80
2021/07/29 03:07:08;;;;;;;4.28;1.58;;;13.90;99.90;;;;;;5094169;28;20032;-80
2021/07/29 03:09:34;;;;;;;3.30;1.10;;;13.90;99.90;;;;;;5093815;28;20476;-79
2021/07/29 03:12:04;;;;;;;2.05;1.33;;;13.90;99.90;;;;;;5067453;28;20107;-80
2021/07/29 03:14:30;;;;;;;6.50;1.40;;;13.80;99.90;;;;;;5087939;28;20062;-80
2021/07/29 03:16:56;;;;;;;2.50;1.30;;;13.80;99.90;;;;;;5100254;28;20096;-80
2021/07/29 03:19:22;;;;;;;2.47;1.05;;;13.80;99.90;;;;;;5114185;28;20036;-79
2021/07/29 03:21:48;;;;;;;3.45;1.20;;;13.70;99.90;;;;;;5095841;28;20364;-80
2021/07/29 03:24:13;;;;;;;4.85;1.10;;;13.70;99.90;;;;;;5114032;28;20100;-80
2021/07/29 03:26:39;;;;;;;3.47;1.20;;;13.80;99.90;;;;;;5078729;28;20395;-80
2021/07/29 03:29:05;;;;;;;2.38;1.00;;;13.70;99.90;;;;;;5096012;28;20173;-80
2021/07/29 03:31:31;;;;;;;3.10;0.95;;;13.70;99.90;;;;;;5061427;28;20187;-80
2021/07/29 03:33:57;;;;;;;2.42;1.00;;;13.80;99.90;;;;;;5096018;28;20050;-79
2021/07/29 03:36:23;;;;;;;3.67;1.10;;;13.60;99.90;;;;;;5095467;28;20039;-79
2021/07/29 03:38:48;;;;;;;3.30;1.10;;;13.60;99.90;;;;;;5095339;28;20395;-79
2021/07/29 03:41:14;;;;;;;7.35;1.08;;;13.70;99.90;;;;;;5113888;28;20027;-80
2021/07/29 03:43:40;;;;;;;3.70;1.15;;;14.20;99.90;;;;;;5078824;28;20671;-80
2021/07/29 03:46:06;;;;;;;2.88;0.90;;;13.60;99.90;;;;;;5112587;28;20032;-80
2021/07/29 03:48:32;;;;;;;2.83;1.08;;;13.60;99.90;;;;;;5113836;28;20092;-80
2021/07/29 03:50:58;;;;;;;4.07;1.45;;;13.60;99.90;;;;;;5061973;28;20043;-81
2021/07/29 03:53:24;;;;;;;3.10;1.27;;;13.60;99.90;;;;;;5085933;28;20433;-79
2021/07/29 03:55:49;;;;;;;3.40;1.30;;;13.60;99.90;;;;;;5090755;28;20035;-79
2021/07/29 03:58:16;;;;;;;4.57;1.40;;;13.90;99.90;;;;;;5095436;28;20039;-80
2021/07/29 04:00:42;;;;;;;3.67;1.13;;;13.60;99.90;;;;;;5113599;28;20032;-80
2021/07/29 04:03:08;;;;;;;4.13;1.25;;;13.80;99.90;;;;;;5094280;28;20039;-80
2021/07/29 04:05:34;;;;;;;4.47;1.30;;;13.60;99.90;;;;;;5095451;28;20035;-80
2021/07/29 04:08:00;;;;;;;4.40;1.30;;;13.60;99.90;;;;;;5113014;28;20088;-80
2021/07/29 04:10:26;;;;;;;3.70;1.55;;;13.60;99.90;;;;;;5075144;28;20032;-80
2021/07/29 04:12:52;;;;;;;4.35;1.20;;;13.60;99.90;;;;;;5109067;28;20040;-80
2021/07/29 04:15:18;;;;;;;4.72;1.50;;;13.60;99.90;;;;;;5113313;28;20088;-80
2021/07/29 04:17:44;;;;;;;6.75;1.48;;;13.60;99.90;;;;;;5065329;28;20048;-80
2021/07/29 04:20:10;;;;;;;6.22;1.33;;;13.60;99.90;;;;;;5074498;28;20044;-80
2021/07/29 04:22:36;;;;;;;3.58;1.30;;;14.00;99.90;;;;;;5092835;28;20082;-79
2021/07/29 04:25:02;;;;;;;7.60;1.42;;;13.60;99.90;;;;;;5054572;28;20440;-80
2021/07/29 04:27:27;;;;;;;5.38;1.63;;;13.60;99.90;;;;;;5082483;28;20051;-80
2021/07/29 04:29:53;;;;;;;5.82;1.50;;;13.60;99.90;;;;;;5074679;28;20157;-80
2021/07/29 04:32:21;;;;;;;5.22;1.90;;;13.60;99.90;;;;;;5054901;28;20040;-80
2021/07/29 04:34:49;;;;;;;4.43;1.35;;;13.70;99.90;;;;;;5064728;28;20040;-81
2021/07/29 04:37:21;;;;;;;5.35;1.63;;;13.70;99.90;;;;;;5075029;28;20032;-80
2021/07/29 04:39:49;;;;;;;6.90;1.55;;;13.60;99.90;;;;;;5074608;28;20043;-80
2021/07/29 04:42:15;;;;;;;7.80;1.92;;;13.60;99.90;;;;;;5055710;28;20132;-80
2021/07/29 04:44:41;;;;;;;5.18;1.90;;;13.60;99.90;;;;;;5074459;28;20150;-80
2021/07/29 04:47:07;;;;;;;7.20;2.10;;;13.60;99.90;;;;;;5054632;28;20484;-80
2021/07/29 04:49:35;;;;;;;7.18;1.92;;;13.70;99.90;;;;;;5076364;28;20032;-81
2021/07/29 04:52:00;;;;;;;2.78;1.45;;;13.70;99.90;;;;;;5071827;28;20393;-80
2021/07/29 04:54:27;;;;;;;5.90;1.63;;;14.30;99.90;;;;;;5076643;28;20488;-80
2021/07/29 04:56:52;;;;;;;7.10;2.03;;;13.80;99.90;;;;;;5078570;28;20033;-80
2021/07/29 04:59:21;;;;;;;6.40;1.73;;;13.80;99.90;;;;;;5078503;28;20514;-80
2021/07/29 05:01:49;;;;;;;6.18;2.00;;;13.90;99.90;;;;;;5096428;28;20110;-81
2021/07/29 05:04:16;;;;;;;9.93;2.28;;;14.00;99.90;;;;;;5096199;28;20123;-80
2021/07/29 05:06:42;;;;;;;7.93;2.00;;;14.00;99.90;;;;;;5078375;28;20035;-80
2021/07/29 05:09:08;;;;;;;14.00;2.30;;;14.10;99.90;;;;;;5060537;28;20044;-80
2021/07/29 05:11:38;;;;;;;8.40;2.35;;;14.10;99.90;;;;;;5096069;28;20078;-81
2021/07/29 05:14:07;;;;;;;6.15;2.17;;;14.20;99.90;;;;;;5066404;28;20396;-80
2021/07/29 05:16:47;;;;;;;9.45;2.35;;;14.20;99.90;;;;;;5074158;28;20078;-83
2021/07/29 05:19:13;;;;;;;10.15;2.45;;;13.90;99.90;;;;;;5087228;28;20035;-83
2021/07/29 05:21:40;;;;;;;9.75;2.67;;;14.40;99.90;;;;;;5114725;28;20081;-83
2021/07/29 05:24:09;;;;;;;9.38;2.72;;;14.40;99.90;;;;;;5116651;28;20774;-82
2021/07/29 05:26:38;;;;;;;9.27;2.70;;;14.50;99.90;;;;;;5097670;28;20039;-82
2021/07/29 05:29:03;;;;;;;7.07;2.65;;;14.50;99.90;;;;;;5057525;28;20048;-80
2021/07/29 05:31:30;;;;;;;10.10;2.88;;;14.60;99.90;;;;;;5061423;28;20044;-81
2021/07/29 05:33:56;;;;;;;9.57;2.28;;;14.70;99.90;;;;;;5116194;28;20114;-80
2021/07/29 05:36:21;;;;;;;8.82;2.40;;;14.80;99.90;;;;;;5081265;28;20035;-80
2021/07/29 05:38:49;;;;;;;12.85;2.28;;;14.80;99.90;;;;;;5081125;28;20031;-80
2021/07/29 05:41:15;;;;;;;9.20;2.35;;;14.80;99.90;;;;;;5090547;28;20036;-79
2021/07/29 05:43:43;;;;;;;8.30;2.20;;;14.90;99.90;;;;;;5057803;28;20135;-81
2021/07/29 05:46:10;;;;;;;11.10;2.45;;;15.00;99.90;;;;;;5116019;28;20487;-80
2021/07/29 05:48:37;;;;;;;8.23;2.40;;;15.00;99.90;;;;;;5085996;28;20036;-80
2021/07/29 05:51:03;;;;;;;16.42;2.72;;;15.00;99.90;;;;;;5092352;28;20040;-80
2021/07/29 05:53:29;;;;;;;7.60;2.40;;;15.10;99.90;;;;;;5077672;28;20407;-80
2021/07/29 05:55:59;;;;;;;14.10;2.72;;;15.10;99.90;;;;;;5083377;28;20471;-79
2021/07/29 05:58:25;;;;;;;15.18;2.78;;;15.20;99.90;;;;;;5113864;28;20032;-80
2021/07/29 06:00:53;;;;;;;11.77;2.65;;;15.10;99.90;;;;;;5092214;28;20121;-80
2021/07/29 06:03:19;;;;;;;12.60;2.72;;;15.30;99.90;;;;;;5115786;28;20035;-80
2021/07/29 06:05:44;;;;;;;13.60;2.60;;;15.30;99.90;;;;;;5097698;28;20403;-80
2021/07/29 06:08:12;;;;;;;12.05;2.80;;;15.30;99.90;;;;;;5115644;28;20031;-79
2021/07/29 06:10:38;;;;;;;15.65;2.97;;;15.30;99.90;;;;;;5080793;28;20031;-80
2021/07/29 06:13:04;;;;;;;12.18;3.10;;;15.30;99.90;;;;;;5097372;28;20082;-80
2021/07/29 06:15:31;;;;;;;9.75;3.03;;;15.40;99.90;;;;;;5115707;28;20035;-80
2021/07/29 06:18:00;;;;;;;12.35;2.17;;;15.40;99.90;;;;;;5095013;28;20089;-80
2021/07/29 06:20:32;;;;;;;14.57;2.92;;;15.40;99.90;;;;;;5115532;28;20055;-80
2021/07/29 06:22:58;;;;;;;11.43;2.95;;;15.50;99.90;;;;;;5115227;28;20103;-80
2021/07/29 06:25:24;;;;;;;10.32;2.50;;;15.50;99.90;;;;;;5090433;28;20116;-80
2021/07/29 06:27:50;;;;;;;9.88;2.53;;;15.60;99.90;;;;;;5090013;28;20446;-80
2021/07/29 06:30:17;;;;;;;14.75;3.10;;;15.60;99.90;;;;;;5096894;28;20395;-80
2021/07/29 06:32:43;;;;;;;17.33;3.03;;;15.60;99.90;;;;;;5096056;28;20111;-80
2021/07/29 06:35:16;;;;;;;14.65;2.88;;;15.60;99.90;;;;;;5100630;28;20045;-80
2021/07/29 06:37:42;;;;;;;8.70;3.08;;;15.70;99.90;;;;;;5097348;28;20085;-80
2021/07/29 06:40:09;;;;;;;12.30;2.85;;;15.70;99.90;;;;;;5102764;28;20036;-81
2021/07/29 06:42:35;;;;;;;15.13;2.63;;;15.80;99.90;;;;;;5098684;28;20039;-79
2021/07/29 06:45:01;;;;;;;10.70;2.78;;;15.80;99.90;;;;;;5096531;28;20040;-80
2021/07/29 06:47:27;;;;;;;9.82;2.80;;;15.80;99.90;;;;;;5082415;28;20040;-79
2021/07/29 06:49:53;;;;;;;13.65;3.17;;;15.80;99.90;;;;;;5095637;28;20395;-81
2021/07/29 06:52:19;;;;;;;13.48;2.50;;;15.90;99.90;;;;;;5114699;28;20038;-81
2021/07/29 06:54:45;;;;;;;14.18;2.97;;;15.90;99.90;;;;;;5096622;28;20028;-80
2021/07/29 06:57:11;;;;;;;14.55;2.75;;;15.90;99.90;;;;;;5114962;28;20414;-80
2021/07/29 06:59:37;;;;;;;9.45;2.50;;;16.00;99.90;;;;;;5096472;28;20039;-81
2021/07/29 07:02:04;;;;;;;14.77;2.70;;;16.00;99.90;;;;;;5096513;28;20487;-80
2021/07/29 07:04:30;;;;;;;11.98;2.85;;;16.00;99.90;;;;;;5077984;28;20042;-81
2021/07/29 07:06:56;;;;;;;9.13;2.65;;;16.10;99.90;;;;;;5096592;28;20036;-81
2021/07/29 07:09:22;;;;;;;12.77;2.60;;;16.10;99.90;;;;;;5114374;28;20040;-81
2021/07/29 07:11:48;;;;;;;14.25;2.75;;;16.10;99.90;;;;;;5113656;28;20054;-80
2021/07/29 07:14:14;;;;;;;14.48;2.42;;;16.10;99.90;;;;;;5096287;28;20495;-81
2021/07/29 07:16:40;;;;;;;14.40;2.65;;;16.10;99.90;;;;;;5114277;28;20035;-81
2021/07/29 07:19:06;;;;;;;17.15;3.10;;;16.20;99.90;;;;;;5095947;28;20052;-82
2021/07/29 07:21:32;;;;;;;12.15;2.80;;;16.30;99.90;;;;;;5095154;28;20031;-82
2021/07/29 07:23:58;;;;;;;11.43;2.60;;;16.30;99.90;;;;;;5115057;28;20039;-81
2021/07/29 07:26:30;;;;;;;10.95;2.67;;;16.40;99.90;;;;;;5081794;28;20044;-81
2021/07/29 07:28:56;;;;;;;13.73;3.08;;;16.50;99.90;;;;;;5096431;28;20043;-81
2021/07/29 07:31:22;;;;;;;13.88;3.03;;;16.50;99.90;;;;;;5095948;28;20377;-81
2021/07/29 07:33:50;;;;;;;12.98;2.80;;;16.60;99.90;;;;;;5095805;28;20035;-81
2021/07/29 07:36:20;;;;;;;14.40;2.88;;;16.60;99.90;;;;;;5091257;28;20039;-81
2021/07/29 07:38:49;;;;;;;10.75;2.60;;;16.60;99.90;;;;;;5076543;28;20036;-82
2021/07/29 07:41:17;;;;;;;12.05;2.55;;;16.60;99.90;;;;;;5113682;28;20031;-81
2021/07/29 07:43:52;;;;;;;9.23;2.42;;;16.70;99.90;;;;;;5075788;28;20101;-81
2021/07/29 07:46:21;;;;;;;16.15;2.95;;;16.70;99.90;;;;;;5078084;28;20032;-83
2021/07/29 07:48:48;;;;;;;9.73;2.40;;;16.70;99.90;;;;;;5089285;28;20036;-83
2021/07/29 07:51:14;;;;;;;11.68;2.60;;;16.80;99.90;;;;;;5095989;28;20474;-82
2021/07/29 07:53:43;;;;;;;15.75;3.08;;;16.80;99.90;;;;;;5095603;28;20039;-83
2021/07/29 07:56:09;;;;;;;10.75;2.90;;;16.80;99.90;;;;;;5081080;28;20112;-83
2021/07/29 07:58:38;;;;;;;15.55;2.78;;;16.80;99.90;;;;;;5113521;28;20044;-83
2021/07/29 08:01:06;;;;;;;13.95;2.67;;;16.90;99.90;;;;;;5113172;28;20037;-84
2021/07/29 08:03:33;;;;;;;11.52;2.40;;;17.00;99.90;;;;;;5095139;28;20040;-83
2021/07/29 08:06:02;;;;;;;12.85;2.80;;;17.10;99.90;;;;;;5095711;28;20035;-82
2021/07/29 08:08:28;;;;;;;10.82;2.28;;;17.10;99.90;;;;;;5113526;28;20463;-81
2021/07/29 08:10:54;;;;;;;12.05;2.65;;;17.10;99.90;;;;;;5100427;28;20032;-81
2021/07/29 08:13:23;;;;;;;12.95;2.83;;;17.10;99.90;;;;;;5078170;28;20036;-81
2021/07/29 08:15:49;;;;;;;11.48;2.35;;;17.10;99.90;;;;;;5113285;28;20051;-81
2021/07/29 08:18:18;;;;;;;12.68;3.15;;;17.20;99.90;;;;;;5095175;28;20078;-82
2021/07/29 08:20:50;;;;;;;14.95;3.25;;;17.20;99.90;;;;;;5095821;28;20043;-82
2021/07/29 08:23:21;;;;;;;13.15;2.75;;;17.30;99.90;;;;;;5113242;28;20040;-81
2021/07/29 08:25:49;;;;;;;11.65;3.25;;;17.30;99.90;;;;;;5095420;28;20032;-81
2021/07/29 08:28:18;;;;;;;8.38;2.38;;;17.70;99.90;;;;;;5093613;28;20059;-81
2021/07/29 08:30:44;;;;;;;12.43;2.80;;;17.50;99.90;;;;;;5094970;28;20024;-82
2021/07/29 08:33:10;;;;;;;13.93;2.38;;;17.60;99.90;;;;;;5078628;28;20047;-82
2021/07/29 08:35:40;;;;;;;11.82;2.60;;;17.60;99.90;;;;;;5088899;28;20040;-81
2021/07/29 08:38:06;;;;;;;11.82;2.20;;;17.50;99.90;;;;;;5068495;28;20032;-81
2021/07/29 08:40:34;;;;;;;11.10;2.67;;;17.40;99.90;;;;;;5093272;28;20120;-81
2021/07/29 08:43:01;;;;;;;10.02;2.53;;;17.30;99.90;;;;;;5082182;28;20043;-80
2021/07/29 08:45:29;;;;;;;8.40;2.47;;;17.20;99.90;;;;;;5093834;28;20519;-82
2021/07/29 08:47:57;;;;;;;10.75;2.55;;;17.10;99.90;;;;;;5112925;28;20063;-81
2021/07/29 08:50:46;;;;;;;8.05;2.45;;;17.10;99.90;;;;;;5078206;28;20054;-81
2021/07/29 08:53:17;;;;;;;11.15;2.60;;;17.00;99.90;;;;;;5112284;28;20136;-82
2021/07/29 08:56:07;;;;;;;14.88;2.80;;;17.10;99.90;;;;;;5094188;28;20043;-81
2021/07/29 08:58:33;;;;;;;11.10;2.72;;;16.90;99.90;;;;;;5077330;28;20523;-81
2021/07/29 09:01:00;;;;;;;12.15;2.50;;;17.00;99.90;;;;;;5111840;28;20122;-80
2021/07/29 09:03:29;;;;;;;9.40;2.28;;;17.00;99.90;;;;;;5078191;28;20051;-81
2021/07/29 09:06:06;;;;;;;16.45;3.15;;;16.80;99.90;;;;;;5074635;28;20043;-81
2021/07/29 09:08:47;;;;;;;12.02;3.00;;;17.30;99.90;;;;;;5094880;28;20046;-81
2021/07/29 09:11:35;;;;;;;10.65;2.90;;;17.40;99.90;;;;;;5098274;28;20055;-81
2021/07/29 09:14:23;;;;;;;11.32;2.67;;;17.40;99.90;;;;;;5112745;28;20042;-81
2021/07/29 09:17:11;;;;;;;11.80;2.65;;;17.40;99.90;;;;;;5091066;28;20047;-82
2021/07/29 09:20:07;;;;;;;10.65;2.70;;;17.40;99.90;;;;;;5108221;28;20641;-80
2021/07/29 09:22:47;;;;;;;8.57;2.58;;;17.40;99.90;;;;;;5113277;28;20041;-83
2021/07/29 09:25:27;;;;;;;10.65;2.80;;;17.30;99.90;;;;;;5089794;28;20024;-82
2021/07/29 09:28:04;;;;;;;10.82;2.35;;;17.30;99.90;;;;;;5074019;28;20071;-81
2021/07/29 09:30:34;;;;;;;10.05;2.75;;;17.10;99.90;;;;;;5077404;28;20048;-81
2021/07/29 09:33:09;;;;;;;9.85;2.75;;;17.00;99.90;;;;;;5094494;28;20035;-82
2021/07/29 09:35:42;;;;;;;7.45;2.65;;;16.90;99.90;;;;;;5085837;28;20038;-82
2021/07/29 09:38:17;;;;;;;10.30;2.85;;;16.80;99.90;;;;;;5116285;28;20040;-81
2021/07/29 09:40:47;;;;;;;9.02;2.60;;;16.80;99.90;;;;;;5112801;28;20031;-81
2021/07/29 09:43:24;;;;;;;14.07;3.60;;;16.80;99.90;;;;;;5116066;28;20042;-81
2021/07/29 09:45:53;;;;;;;12.48;2.83;;;16.80;99.90;;;;;;5097608;28;20088;-81
2021/07/29 09:48:23;;;;;;;7.93;2.80;;;16.70;99.90;;;;;;5115848;28;20040;-81
2021/07/29 09:50:58;;;;;;;11.23;2.92;;;16.70;99.90;;;;;;5062981;28;20040;-82
2021/07/29 09:53:36;;;;;;;14.70;3.40;;;16.70;99.90;;;;;;5071393;28;20047;-82
2021/07/29 09:56:09;;;;;;;9.80;2.85;;;16.90;99.90;;;;;;5091162;28;20060;-82
2021/07/29 09:58:41;;;;;;;10.13;2.80;;;17.00;99.90;;;;;;5106426;28;20039;-83
2021/07/29 10:01:17;;;;;;;12.40;2.63;;;17.10;99.90;;;;;;5097793;28;20040;-82
2021/07/29 10:03:55;;;;;;;10.32;2.30;;;17.40;99.90;;;;;;5070357;28;20127;-81
2021/07/29 10:06:44;;;;;;;11.85;2.90;;;17.40;99.90;;;;;;5096369;28;20082;-81
2021/07/29 10:09:14;;;;;;;;;;;17.80;99.90;;;;;;5095615;28;20028;-81
2021/07/29 10:12:20;;;;;;;7.88;2.20;;;17.60;99.90;;;;;;5084781;28;19923;-81
2021/07/29 10:14:59;;;;;;;10.73;2.50;;;17.70;99.90;;;;;;5097151;28;20042;-81
2021/07/29 10:17:35;;;;;;;11.32;1.95;;;17.70;99.90;;;;;;5097098;28;20058;-80
2021/07/29 10:20:14;;;;;;;8.00;1.90;;;17.70;99.90;;;;;;5097097;28;20027;-81
2021/07/29 10:22:47;;;;;;;11.52;2.50;;;17.90;99.90;;;;;;5115197;28;20499;-82
2021/07/29 10:25:14;;;;;;;9.10;2.10;;;18.10;99.90;;;;;;5114070;28;20035;-80
2021/07/29 10:27:43;;;;;;;6.18;1.50;;;18.30;99.90;;;;;;5097476;28;20043;-81
2021/07/29 10:30:19;;;;;;;6.65;1.58;;;18.40;99.90;;;;;;5097991;28;20054;-81
2021/07/29 10:33:00;;;;;;;10.80;1.95;;;18.50;99.90;;;;;;5115220;28;20108;-81
2021/07/29 10:35:40;;;;;;;7.43;1.65;;;18.60;99.90;;;;;;5109121;28;20040;-82
2021/07/29 10:38:08;;;;;;;6.95;1.83;;;18.60;99.90;;;;;;5073154;28;20047;-81
2021/07/29 10:40:42;;;;;;;12.77;2.13;;;18.50;99.90;;;;;;5080423;28;20071;-81
2021/07/29 10:43:36;;;;;;;6.03;1.70;;;18.30;99.90;;;;;;5087894;28;20607;-81
2021/07/29 10:46:07;;;;;;;8.25;1.48;;;18.20;99.90;;;;;;5108516;28;20078;-81
2021/07/29 10:48:48;;;;;;;7.93;1.52;;;18.10;99.90;;;;;;5088676;28;20035;-81
2021/07/29 10:51:25;;;;;;;8.00;1.92;;;18.20;99.90;;;;;;5096642;28;20056;-81
2021/07/29 10:54:03;;;;;;;5.45;1.67;;;18.30;99.90;;;;;;5080405;28;20122;-80
2021/07/29 10:56:32;;;;;;;11.75;1.65;;;18.20;99.90;;;;;;5063266;28;20464;-81
2021/07/29 10:58:58;;;;;;;8.30;1.60;;;18.10;99.90;;;;;;5090050;28;20036;-81
2021/07/29 11:01:52;;;;;;;5.78;1.48;;;18.10;99.90;;;;;;5114255;28;20032;-80
2021/07/29 11:04:27;;;;;;;6.78;1.70;;;18.10;99.90;;;;;;5079550;28;20523;-80
2021/07/29 11:07:16;;;;;;;9.68;1.60;;;18.10;99.90;;;;;;5099334;28;20106;-80
2021/07/29 11:09:42;;;;;;;6.25;1.70;;;18.00;99.90;;;;;;5096462;28;20032;-81
2021/07/29 11:12:13;;;;;;;4.70;1.55;;;18.10;99.90;;;;;;5093775;28;20412;-80
2021/07/29 11:14:43;;;;;;;8.43;1.90;;;18.10;99.90;;;;;;5092851;28;20047;-81
2021/07/29 11:17:09;;;;;;;4.60;1.40;;;18.10;99.90;;;;;;5079183;28;20055;-83
2021/07/29 11:19:46;;;;;;;7.30;2.00;;;18.10;99.90;;;;;;5113577;28;20040;-82
2021/07/29 11:22:12;;;;;;;10.23;2.30;;;18.10;99.90;;;;;;5064372;28;20479;-81
2021/07/29 11:24:39;;;;;;;6.90;1.45;;;18.00;99.90;;;;;;5090309;28;20040;-82
2021/07/29 11:27:07;;;;;;;5.40;1.60;;;18.10;99.90;;;;;;5059493;28;20052;-80
2021/07/29 11:29:50;;;;;;;6.35;1.70;;;18.10;99.90;;;;;;5067692;28;20059;-80
2021/07/29 11:32:21;;;;;;;6.17;1.70;;;18.10;99.90;;;;;;5093538;28;20064;-81
2021/07/29 11:34:57;;;;;;;7.63;1.75;;;18.20;99.90;;;;;;5086202;28;20081;-80
2021/07/29 11:38:23;;;;;;;10.38;1.58;;;18.40;99.90;;;;;;5092337;28;20067;-80
2021/07/29 11:44:20;;;;;;;8.65;2.17;;;18.60;99.90;;;;;;5078689;28;20050;-81
2021/07/29 11:46:57;;;;;;;6.20;1.60;;;18.70;99.90;;;;;;5094587;28;20040;-81
2021/07/29 11:49:36;;;;;;;;;;;;;;;;;;;;;
2021/07/29 11:52:21;;;;;;;8.23;1.73;;;19.00;99.90;;;;;;5099928;28;20039;-81
2021/07/29 11:54:47;;;;;;;6.22;1.85;;;19.00;99.90;;;;;;5078635;28;20052;-81
2021/07/29 11:57:28;;;;;;;13.05;2.28;;;19.10;99.90;;;;;;5096077;28;20048;-81
2021/07/29 11:59:57;;;;;;;6.25;1.70;;;19.10;99.90;;;;;;5100087;28;20034;-81
2021/07/29 12:02:26;;;;;;;10.88;1.80;;;19.10;99.90;;;;;;5094429;28;20498;-81
2021/07/29 12:04:52;;;;;;;10.05;1.98;;;19.10;99.90;;;;;;5094933;28;20471;-81
2021/07/29 12:07:25;;;;;;;7.88;2.17;;;19.10;99.90;;;;;;5113366;28;20044;-81
2021/07/29 12:10:32;;;;;;;;;;;;;;;;;;;;;
2021/07/29 12:13:02;;;;;;;10.00;1.90;;;18.90;99.90;;;;;;5113218;28;20031;-81
2021/07/29 12:15:28;;;;;;;8.50;2.20;;;19.00;99.90;;;;;;5078221;28;20524;-81
2021/07/29 12:18:33;;;;;;;6.07;1.98;;;19.00;99.90;;;;;;5112579;28;20056;-81
2021/07/29 12:21:00;;;;;;;12.05;1.95;;;19.10;99.90;;;;;;5105159;28;20051;-81
2021/07/29 12:23:30;;;;;;;11.55;2.33;;;19.20;99.90;;;;;;5094994;28;20027;-80
2021/07/29 12:26:28;;;;;;;12.10;2.22;;;19.40;99.90;;;;;;5112968;28;20480;-81
2021/07/29 12:29:29;;;;;;;7.80;2.17;;;19.40;99.90;;;;;;5086543;28;20058;-82
2021/07/29 12:31:58;;;;;;;4.88;1.70;;;19.50;99.90;;;;;;5112436;28;20035;-81
2021/07/29 12:34:34;;;;;;;7.25;1.80;;;19.40;99.90;;;;;;5094962;28;20468;-81
2021/07/29 12:37:00;;;;;;;8.48;2.47;;;19.40;99.90;;;;;;5089969;28;20123;-81
2021/07/29 12:39:48;;;;;;;4.57;1.77;;;19.20;99.90;;;;;;5061478;28;20118;-82
2021/07/29 12:42:29;;;;;;;13.27;2.33;;;19.20;99.90;;;;;;5096828;28;20036;-83
2021/07/29 12:45:09;;;;;;;9.73;2.17;;;19.10;99.90;;;;;;5075648;28;20109;-83
2021/07/29 12:47:35;;;;;;;9.52;1.98;;;19.10;99.90;;;;;;5110726;28;20038;-82
2021/07/29 12:50:02;;;;;;;9.70;1.95;;;19.20;99.90;;;;;;5074693;28;20036;-83
2021/07/29 12:52:31;;;;;;;8.95;1.90;;;19.20;99.90;;;;;;5071191;28;20611;-83
2021/07/29 12:55:01;;;;;;;12.18;1.92;;;19.40;99.90;;;;;;5112642;28;20035;-82
2021/07/29 12:57:28;;;;;;;8.75;1.63;;;19.50;99.90;;;;;;5094562;28;20042;-83
2021/07/29 12:59:56;;;;;;;6.40;2.00;;;19.50;99.90;;;;;;5112871;28;20035;-83
2021/07/29 13:02:23;;;;;;;8.73;1.75;;;19.60;99.90;;;;;;5112876;28;20058;-83
2021/07/29 13:04:51;;;;;;;5.55;1.67;;;19.60;99.90;;;;;;5112529;28;20042;-83
2021/07/29 13:07:18;;;;;;;5.97;1.58;;;19.50;99.90;;;;;;5084211;28;20040;-83
2021/07/29 13:09:47;;;;;;;4.93;2.00;;;19.60;99.90;;;;;;5095487;28;20108;-82
2021/07/29 13:12:20;;;;;;;7.85;2.55;;;19.50;99.90;;;;;;5083069;28;20035;-82
2021/07/29 13:15:06;;;;;;;7.85;1.73;;;19.60;99.90;;;;;;5116488;28;20032;-83
2021/07/29 13:17:37;;;;;;;5.68;2.10;;;19.70;99.90;;;;;;5099055;28;20051;-84